sensor_id;sensor_type;location;lat;lon;timestamp;P1;durP1;ratioP1;P2;durP2;ratioP2
16520;SDS011;8373;48.110;11.522;2023-04-24T00:02:06;0.73;;;0.73;;
16520;SDS011;8373;48.110;11.522;2023-04-24T00:04:35;1.03;;;1.03;;
16520;SDS011;8373;48.110;11.522;2023-04-24T00:07:06;0.80;;;0.80;;
16520;SDS011;8373;48.110;11.522;2023-04-24T00:09:33;1.00;;;1.00;;
16520;SDS011;8373;48.110;11.522;2023-04-24T00:12:00;0.73;;;0.73;;
16520;SDS011;8373;48.110;11.522;2023-04-24T00:14:29;0.97;;;0.97;;
16520;SDS011;8373;48.110;11.522;2023-04-24T00:16:56;0.80;;;0.80;;
16520;SDS011;8373;48.110;11.522;2023-04-24T00:19:23;0.87;;;0.87;;
16520;SDS011;8373;48.110;11.522;2023-04-24T00:21:50;0.70;;;0.70;;
16520;SDS011;8373;48.110;11.522;2023-04-24T00:24:18;0.90;;;0.90;;
16520;SDS011;8373;48.110;11.522;2023-04-24T00:26:46;0.60;;;0.60;;
16520;SDS011;8373;48.110;11.522;2023-04-24T00:29:13;0.60;;;0.60;;
16520;SDS011;8373;48.110;11.522;2023-04-24T00:31:40;0.70;;;0.70;;
16520;SDS011;8373;48.110;11.522;2023-04-24T00:34:07;0.87;;;0.87;;
16520;SDS011;8373;48.110;11.522;2023-04-24T00:36:35;0.80;;;0.80;;
16520;SDS011;8373;48.110;11.522;2023-04-24T00:39:02;0.90;;;0.90;;
16520;SDS011;8373;48.110;11.522;2023-04-24T00:41:31;0.90;;;0.90;;
16520;SDS011;8373;48.110;11.522;2023-04-24T00:43:58;0.70;;;0.70;;
16520;SDS011;8373;48.110;11.522;2023-04-24T00:46:25;0.80;;;0.80;;
16520;SDS011;8373;48.110;11.522;2023-04-24T00:48:52;0.70;;;0.70;;
16520;SDS011;8373;48.110;11.522;2023-04-24T00:51:19;0.90;;;0.90;;
16520;SDS011;8373;48.110;11.522;2023-04-24T00:53:46;0.83;;;0.83;;
16520;SDS011;8373;48.110;11.522;2023-04-24T00:56:13;0.70;;;0.70;;
16520;SDS011;8373;48.110;11.522;2023-04-24T00:58:41;0.90;;;0.90;;
16520;SDS011;8373;48.110;11.522;2023-04-24T01:01:08;0.90;;;0.90;;
16520;SDS011;8373;48.110;11.522;2023-04-24T01:03:36;0.70;;;0.70;;
16520;SDS011;8373;48.110;11.522;2023-04-24T01:06:04;0.70;;;0.70;;
16520;SDS011;8373;48.110;11.522;2023-04-24T01:08:31;0.80;;;0.80;;
16520;SDS011;8373;48.110;11.522;2023-04-24T01:11:00;0.60;;;0.60;;
16520;SDS011;8373;48.110;11.522;2023-04-24T01:13:29;0.73;;;0.73;;
16520;SDS011;8373;48.110;11.522;2023-04-24T01:15:59;0.83;;;0.83;;
16520;SDS011;8373;48.110;11.522;2023-04-24T01:18:27;0.70;;;0.70;;
16520;SDS011;8373;48.110;11.522;2023-04-24T01:20:55;1.00;;;1.00;;
16520;SDS011;8373;48.110;11.522;2023-04-24T01:23:25;1.00;;;1.00;;
16520;SDS011;8373;48.110;11.522;2023-04-24T01:25:52;0.93;;;0.93;;
16520;SDS011;8373;48.110;11.522;2023-04-24T01:28:19;0.80;;;0.80;;
16520;SDS011;8373;48.110;11.522;2023-04-24T01:30:47;1.00;;;1.00;;
16520;SDS011;8373;48.110;11.522;2023-04-24T01:33:14;0.90;;;0.90;;
16520;SDS011;8373;48.110;11.522;2023-04-24T01:35:41;0.90;;;0.90;;
16520;SDS011;8373;48.110;11.522;2023-04-24T01:38:08;1.17;;;1.17;;
16520;SDS011;8373;48.110;11.522;2023-04-24T01:40:37;0.73;;;0.73;;
16520;SDS011;8373;48.110;11.522;2023-04-24T01:43:04;0.90;;;0.90;;
16520;SDS011;8373;48.110;11.522;2023-04-24T01:45:31;0.90;;;0.90;;
16520;SDS011;8373;48.110;11.522;2023-04-24T01:47:58;0.90;;;0.90;;
16520;SDS011;8373;48.110;11.522;2023-04-24T01:50:26;0.80;;;0.80;;
16520;SDS011;8373;48.110;11.522;2023-04-24T01:52:53;0.60;;;0.60;;
16520;SDS011;8373;48.110;11.522;2023-04-24T01:55:20;0.70;;;0.70;;
16520;SDS011;8373;48.110;11.522;2023-04-24T01:57:48;0.70;;;0.70;;
16520;SDS011;8373;48.110;11.522;2023-04-24T02:00:16;0.90;;;0.90;;
16520;SDS011;8373;48.110;11.522;2023-04-24T02:02:43;0.87;;;0.87;;
16520;SDS011;8373;48.110;11.522;2023-04-24T02:05:11;0.63;;;0.63;;
16520;SDS011;8373;48.110;11.522;2023-04-24T02:07:38;0.90;;;0.90;;
16520;SDS011;8373;48.110;11.522;2023-04-24T02:10:05;0.87;;;0.87;;
16520;SDS011;8373;48.110;11.522;2023-04-24T02:12:32;0.83;;;0.83;;
16520;SDS011;8373;48.110;11.522;2023-04-24T02:15:01;0.83;;;0.83;;
16520;SDS011;8373;48.110;11.522;2023-04-24T02:17:28;0.77;;;0.77;;
16520;SDS011;8373;48.110;11.522;2023-04-24T02:19:55;0.90;;;0.90;;
16520;SDS011;8373;48.110;11.522;2023-04-24T02:22:22;0.63;;;0.63;;
16520;SDS011;8373;48.110;11.522;2023-04-24T02:24:49;0.80;;;0.80;;
16520;SDS011;8373;48.110;11.522;2023-04-24T02:27:16;0.97;;;0.97;;
16520;SDS011;8373;48.110;11.522;2023-04-24T02:29:43;0.90;;;0.90;;
16520;SDS011;8373;48.110;11.522;2023-04-24T02:32:11;0.50;;;0.50;;
16520;SDS011;8373;48.110;11.522;2023-04-24T02:34:40;1.00;;;1.00;;
16520;SDS011;8373;48.110;11.522;2023-04-24T02:37:07;0.80;;;0.80;;
16520;SDS011;8373;48.110;11.522;2023-04-24T02:39:34;0.87;;;0.87;;
16520;SDS011;8373;48.110;11.522;2023-04-24T02:42:01;0.90;;;0.90;;
16520;SDS011;8373;48.110;11.522;2023-04-24T02:44:28;1.10;;;1.10;;
16520;SDS011;8373;48.110;11.522;2023-04-24T02:46:55;0.70;;;0.70;;
16520;SDS011;8373;48.110;11.522;2023-04-24T02:49:23;0.77;;;0.77;;
16520;SDS011;8373;48.110;11.522;2023-04-24T02:51:51;0.77;;;0.77;;
16520;SDS011;8373;48.110;11.522;2023-04-24T02:54:18;0.80;;;0.80;;
16520;SDS011;8373;48.110;11.522;2023-04-24T02:56:44;0.83;;;0.83;;
16520;SDS011;8373;48.110;11.522;2023-04-24T02:59:11;0.70;;;0.70;;
16520;SDS011;8373;48.110;11.522;2023-04-24T03:01:38;1.03;;;1.03;;
16520;SDS011;8373;48.110;11.522;2023-04-24T03:04:05;0.80;;;0.80;;
16520;SDS011;8373;48.110;11.522;2023-04-24T03:06:33;0.80;;;0.80;;
16520;SDS011;8373;48.110;11.522;2023-04-24T03:09:01;0.70;;;0.70;;
16520;SDS011;8373;48.110;11.522;2023-04-24T03:11:28;1.00;;;1.00;;
16520;SDS011;8373;48.110;11.522;2023-04-24T03:13:55;1.00;;;1.00;;
16520;SDS011;8373;48.110;11.522;2023-04-24T03:16:22;0.90;;;0.90;;
16520;SDS011;8373;48.110;11.522;2023-04-24T03:18:49;0.90;;;0.90;;
16520;SDS011;8373;48.110;11.522;2023-04-24T03:21:16;0.90;;;0.90;;
16520;SDS011;8373;48.110;11.522;2023-04-24T03:23:44;0.87;;;0.87;;
16520;SDS011;8373;48.110;11.522;2023-04-24T03:26:11;0.90;;;0.90;;
16520;SDS011;8373;48.110;11.522;2023-04-24T03:28:38;1.07;;;1.07;;
16520;SDS011;8373;48.110;11.522;2023-04-24T03:31:05;0.50;;;0.50;;
16520;SDS011;8373;48.110;11.522;2023-04-24T03:33:33;1.00;;;1.00;;
16520;SDS011;8373;48.110;11.522;2023-04-24T03:36:01;1.03;;;1.03;;
16520;SDS011;8373;48.110;11.522;2023-04-24T03:38:28;0.97;;;0.97;;
16520;SDS011;8373;48.110;11.522;2023-04-24T03:40:56;1.07;;;1.07;;
16520;SDS011;8373;48.110;11.522;2023-04-24T03:43:23;0.90;;;0.90;;
16520;SDS011;8373;48.110;11.522;2023-04-24T03:45:50;0.90;;;0.90;;
16520;SDS011;8373;48.110;11.522;2023-04-24T03:48:17;0.90;;;0.90;;
16520;SDS011;8373;48.110;11.522;2023-04-24T03:50:44;0.70;;;0.70;;
16520;SDS011;8373;48.110;11.522;2023-04-24T03:53:11;0.80;;;0.80;;
16520;SDS011;8373;48.110;11.522;2023-04-24T03:55:38;1.10;;;1.10;;
16520;SDS011;8373;48.110;11.522;2023-04-24T03:58:06;1.00;;;1.00;;
16520;SDS011;8373;48.110;11.522;2023-04-24T04:00:33;1.00;;;1.00;;
16520;SDS011;8373;48.110;11.522;2023-04-24T04:03:00;0.97;;;0.97;;
16520;SDS011;8373;48.110;11.522;2023-04-24T04:05:27;1.20;;;1.20;;
16520;SDS011;8373;48.110;11.522;2023-04-24T04:07:54;0.83;;;0.83;;
16520;SDS011;8373;48.110;11.522;2023-04-24T04:10:21;0.83;;;0.83;;
16520;SDS011;8373;48.110;11.522;2023-04-24T04:12:47;0.70;;;0.70;;
16520;SDS011;8373;48.110;11.522;2023-04-24T04:15:16;0.90;;;0.90;;
16520;SDS011;8373;48.110;11.522;2023-04-24T04:17:43;1.30;;;1.30;;
16520;SDS011;8373;48.110;11.522;2023-04-24T04:20:10;1.07;;;1.07;;
16520;SDS011;8373;48.110;11.522;2023-04-24T04:22:38;0.90;;;0.90;;
16520;SDS011;8373;48.110;11.522;2023-04-24T04:25:05;1.03;;;1.03;;
16520;SDS011;8373;48.110;11.522;2023-04-24T04:27:33;1.10;;;1.10;;
16520;SDS011;8373;48.110;11.522;2023-04-24T04:30:01;1.00;;;1.00;;
16520;SDS011;8373;48.110;11.522;2023-04-24T04:32:31;1.20;;;1.20;;
16520;SDS011;8373;48.110;11.522;2023-04-24T04:34:59;1.00;;;1.00;;
16520;SDS011;8373;48.110;11.522;2023-04-24T04:37:28;1.00;;;1.00;;
16520;SDS011;8373;48.110;11.522;2023-04-24T04:39:55;1.20;;;1.20;;
16520;SDS011;8373;48.110;11.522;2023-04-24T04:42:23;0.97;;;0.97;;
16520;SDS011;8373;48.110;11.522;2023-04-24T04:44:50;0.80;;;0.80;;
16520;SDS011;8373;48.110;11.522;2023-04-24T04:47:17;1.30;;;1.30;;
16520;SDS011;8373;48.110;11.522;2023-04-24T04:49:48;1.00;;;1.00;;
16520;SDS011;8373;48.110;11.522;2023-04-24T04:52:16;1.30;;;1.30;;
16520;SDS011;8373;48.110;11.522;2023-04-24T04:54:43;1.20;;;1.20;;
16520;SDS011;8373;48.110;11.522;2023-04-24T04:57:11;1.40;;;1.40;;
16520;SDS011;8373;48.110;11.522;2023-04-24T04:59:38;1.40;;;1.40;;
16520;SDS011;8373;48.110;11.522;2023-04-24T05:02:06;1.20;;;1.20;;
16520;SDS011;8373;48.110;11.522;2023-04-24T05:04:33;0.80;;;0.80;;
16520;SDS011;8373;48.110;11.522;2023-04-24T05:07:01;1.20;;;1.20;;
16520;SDS011;8373;48.110;11.522;2023-04-24T05:09:29;0.87;;;0.87;;
16520;SDS011;8373;48.110;11.522;2023-04-24T05:11:56;1.10;;;1.10;;
16520;SDS011;8373;48.110;11.522;2023-04-24T05:14:23;1.50;;;1.50;;
16520;SDS011;8373;48.110;11.522;2023-04-24T05:16:50;1.10;;;1.10;;
16520;SDS011;8373;48.110;11.522;2023-04-24T05:19:17;1.27;;;1.27;;
16520;SDS011;8373;48.110;11.522;2023-04-24T05:21:44;1.27;;;1.27;;
16520;SDS011;8373;48.110;11.522;2023-04-24T05:24:12;1.20;;;1.20;;
16520;SDS011;8373;48.110;11.522;2023-04-24T05:26:39;1.70;;;1.70;;
16520;SDS011;8373;48.110;11.522;2023-04-24T05:29:06;1.40;;;1.40;;
16520;SDS011;8373;48.110;11.522;2023-04-24T05:31:33;1.47;;;1.47;;
16520;SDS011;8373;48.110;11.522;2023-04-24T05:34:00;1.10;;;1.10;;
16520;SDS011;8373;48.110;11.522;2023-04-24T05:36:27;1.10;;;1.10;;
16520;SDS011;8373;48.110;11.522;2023-04-24T05:38:54;1.67;;;1.67;;
16520;SDS011;8373;48.110;11.522;2023-04-24T05:41:23;1.40;;;1.40;;
16520;SDS011;8373;48.110;11.522;2023-04-24T05:43:50;1.37;;;1.37;;
16520;SDS011;8373;48.110;11.522;2023-04-24T05:46:17;0.97;;;0.97;;
16520;SDS011;8373;48.110;11.522;2023-04-24T05:48:44;0.90;;;0.90;;
16520;SDS011;8373;48.110;11.522;2023-04-24T05:51:11;1.00;;;1.00;;
16520;SDS011;8373;48.110;11.522;2023-04-24T05:53:37;0.73;;;0.73;;
16520;SDS011;8373;48.110;11.522;2023-04-24T05:56:05;1.27;;;1.27;;
16520;SDS011;8373;48.110;11.522;2023-04-24T05:58:33;1.10;;;1.10;;
16520;SDS011;8373;48.110;11.522;2023-04-24T06:01:00;1.50;;;1.50;;
16520;SDS011;8373;48.110;11.522;2023-04-24T06:03:27;1.33;;;1.33;;
16520;SDS011;8373;48.110;11.522;2023-04-24T06:05:54;0.97;;;0.97;;
16520;SDS011;8373;48.110;11.522;2023-04-24T06:08:21;1.20;;;1.20;;
16520;SDS011;8373;48.110;11.522;2023-04-24T06:10:48;1.33;;;1.33;;
16520;SDS011;8373;48.110;11.522;2023-04-24T06:13:15;1.10;;;1.10;;
16520;SDS011;8373;48.110;11.522;2023-04-24T06:15:44;1.33;;;1.33;;
16520;SDS011;8373;48.110;11.522;2023-04-24T06:18:11;1.50;;;1.50;;
16520;SDS011;8373;48.110;11.522;2023-04-24T06:20:38;1.40;;;1.40;;
16520;SDS011;8373;48.110;11.522;2023-04-24T06:23:05;1.47;;;1.47;;
16520;SDS011;8373;48.110;11.522;2023-04-24T06:25:32;1.40;;;1.40;;
16520;SDS011;8373;48.110;11.522;2023-04-24T06:27:59;1.50;;;1.50;;
16520;SDS011;8373;48.110;11.522;2023-04-24T06:30:26;1.20;;;1.20;;
16520;SDS011;8373;48.110;11.522;2023-04-24T06:32:55;1.00;;;1.00;;
16520;SDS011;8373;48.110;11.522;2023-04-24T06:35:22;1.43;;;1.43;;
16520;SDS011;8373;48.110;11.522;2023-04-24T06:37:49;1.40;;;1.40;;
16520;SDS011;8373;48.110;11.522;2023-04-24T06:40:17;1.50;;;1.50;;
16520;SDS011;8373;48.110;11.522;2023-04-24T06:42:44;1.60;;;1.60;;
16520;SDS011;8373;48.110;11.522;2023-04-24T06:45:11;1.47;;;1.47;;
16520;SDS011;8373;48.110;11.522;2023-04-24T06:47:38;1.70;;;1.70;;
16520;SDS011;8373;48.110;11.522;2023-04-24T06:50:07;1.47;;;1.47;;
16520;SDS011;8373;48.110;11.522;2023-04-24T06:52:34;1.33;;;1.33;;
16520;SDS011;8373;48.110;11.522;2023-04-24T06:55:01;1.30;;;1.30;;
16520;SDS011;8373;48.110;11.522;2023-04-24T06:57:29;1.30;;;1.30;;
16520;SDS011;8373;48.110;11.522;2023-04-24T06:59:56;1.60;;;1.60;;
16520;SDS011;8373;48.110;11.522;2023-04-24T07:02:23;1.73;;;1.73;;
16520;SDS011;8373;48.110;11.522;2023-04-24T07:04:50;1.37;;;1.37;;
16520;SDS011;8373;48.110;11.522;2023-04-24T07:07:19;1.60;;;1.60;;
16520;SDS011;8373;48.110;11.522;2023-04-24T07:09:46;1.90;;;1.90;;
16520;SDS011;8373;48.110;11.522;2023-04-24T07:12:13;1.53;;;1.53;;
16520;SDS011;8373;48.110;11.522;2023-04-24T07:14:42;1.80;;;1.80;;
16520;SDS011;8373;48.110;11.522;2023-04-24T07:17:09;1.67;;;1.67;;
16520;SDS011;8373;48.110;11.522;2023-04-24T07:19:38;1.80;;;1.80;;
16520;SDS011;8373;48.110;11.522;2023-04-24T07:22:05;1.47;;;1.47;;
16520;SDS011;8373;48.110;11.522;2023-04-24T07:24:33;1.60;;;1.60;;
16520;SDS011;8373;48.110;11.522;2023-04-24T07:27:00;1.20;;;1.20;;
16520;SDS011;8373;48.110;11.522;2023-04-24T07:29:27;1.17;;;1.17;;
16520;SDS011;8373;48.110;11.522;2023-04-24T07:31:54;1.30;;;1.30;;
16520;SDS011;8373;48.110;11.522;2023-04-24T07:34:21;1.20;;;1.20;;
16520;SDS011;8373;48.110;11.522;2023-04-24T07:36:48;1.20;;;1.20;;
16520;SDS011;8373;48.110;11.522;2023-04-24T07:39:15;1.40;;;1.40;;
16520;SDS011;8373;48.110;11.522;2023-04-24T07:41:43;1.47;;;1.47;;
16520;SDS011;8373;48.110;11.522;2023-04-24T07:44:10;1.10;;;1.10;;
16520;SDS011;8373;48.110;11.522;2023-04-24T07:46:37;1.10;;;1.10;;
16520;SDS011;8373;48.110;11.522;2023-04-24T07:49:04;1.13;;;1.13;;
16520;SDS011;8373;48.110;11.522;2023-04-24T07:51:31;1.20;;;1.20;;
16520;SDS011;8373;48.110;11.522;2023-04-24T07:54:03;1.27;;;1.27;;
16520;SDS011;8373;48.110;11.522;2023-04-24T07:56:30;1.00;;;1.00;;
16520;SDS011;8373;48.110;11.522;2023-04-24T07:58:59;1.50;;;1.50;;
16520;SDS011;8373;48.110;11.522;2023-04-24T08:01:27;1.10;;;1.10;;
16520;SDS011;8373;48.110;11.522;2023-04-24T08:03:54;1.30;;;1.30;;
16520;SDS011;8373;48.110;11.522;2023-04-24T08:06:21;1.60;;;1.60;;
16520;SDS011;8373;48.110;11.522;2023-04-24T08:08:48;1.37;;;1.37;;
16520;SDS011;8373;48.110;11.522;2023-04-24T08:11:16;1.43;;;1.43;;
16520;SDS011;8373;48.110;11.522;2023-04-24T08:13:43;1.40;;;1.40;;
16520;SDS011;8373;48.110;11.522;2023-04-24T08:16:11;1.30;;;1.30;;
16520;SDS011;8373;48.110;11.522;2023-04-24T08:18:38;1.30;;;1.30;;
16520;SDS011;8373;48.110;11.522;2023-04-24T08:21:05;0.93;;;0.93;;
16520;SDS011;8373;48.110;11.522;2023-04-24T08:23:32;1.37;;;1.37;;
16520;SDS011;8373;48.110;11.522;2023-04-24T08:25:59;1.57;;;1.57;;
16520;SDS011;8373;48.110;11.522;2023-04-24T08:28:26;1.63;;;1.63;;
16520;SDS011;8373;48.110;11.522;2023-04-24T08:30:53;1.50;;;1.50;;
16520;SDS011;8373;48.110;11.522;2023-04-24T08:33:22;1.47;;;1.47;;
16520;SDS011;8373;48.110;11.522;2023-04-24T08:35:49;1.30;;;1.30;;
16520;SDS011;8373;48.110;11.522;2023-04-24T08:38:16;1.50;;;1.50;;
16520;SDS011;8373;48.110;11.522;2023-04-24T08:40:43;1.27;;;1.27;;
16520;SDS011;8373;48.110;11.522;2023-04-24T08:43:11;1.40;;;1.40;;
16520;SDS011;8373;48.110;11.522;2023-04-24T08:45:39;1.23;;;1.23;;
16520;SDS011;8373;48.110;11.522;2023-04-24T08:48:06;1.40;;;1.40;;
16520;SDS011;8373;48.110;11.522;2023-04-24T08:50:36;1.67;;;1.67;;
16520;SDS011;8373;48.110;11.522;2023-04-24T08:53:03;1.20;;;1.20;;
16520;SDS011;8373;48.110;11.522;2023-04-24T08:55:30;1.30;;;1.30;;
16520;SDS011;8373;48.110;11.522;2023-04-24T08:57:59;1.37;;;1.37;;
16520;SDS011;8373;48.110;11.522;2023-04-24T09:00:27;1.20;;;1.20;;
16520;SDS011;8373;48.110;11.522;2023-04-24T09:02:54;1.80;;;1.80;;
16520;SDS011;8373;48.110;11.522;2023-04-24T09:05:22;1.10;;;1.10;;
16520;SDS011;8373;48.110;11.522;2023-04-24T09:07:53;1.27;;;1.27;;
16520;SDS011;8373;48.110;11.522;2023-04-24T09:10:21;1.53;;;1.53;;
16520;SDS011;8373;48.110;11.522;2023-04-24T09:12:49;1.13;;;1.13;;
16520;SDS011;8373;48.110;11.522;2023-04-24T09:15:17;1.17;;;1.17;;
16520;SDS011;8373;48.110;11.522;2023-04-24T09:17:45;1.40;;;1.40;;
16520;SDS011;8373;48.110;11.522;2023-04-24T09:20:12;1.30;;;1.30;;
16520;SDS011;8373;48.110;11.522;2023-04-24T09:22:39;1.30;;;1.30;;
16520;SDS011;8373;48.110;11.522;2023-04-24T09:25:09;1.10;;;1.10;;
16520;SDS011;8373;48.110;11.522;2023-04-24T09:27:41;1.40;;;1.40;;
16520;SDS011;8373;48.110;11.522;2023-04-24T09:30:10;1.60;;;1.60;;
16520;SDS011;8373;48.110;11.522;2023-04-24T09:32:37;1.40;;;1.40;;
16520;SDS011;8373;48.110;11.522;2023-04-24T09:35:05;1.13;;;1.13;;
16520;SDS011;8373;48.110;11.522;2023-04-24T09:37:37;1.50;;;1.50;;
16520;SDS011;8373;48.110;11.522;2023-04-24T09:40:14;1.40;;;1.40;;
16520;SDS011;8373;48.110;11.522;2023-04-24T09:42:43;1.50;;;1.50;;
16520;SDS011;8373;48.110;11.522;2023-04-24T09:45:11;1.60;;;1.60;;
16520;SDS011;8373;48.110;11.522;2023-04-24T09:47:38;1.70;;;1.70;;
16520;SDS011;8373;48.110;11.522;2023-04-24T09:50:10;1.40;;;1.40;;
16520;SDS011;8373;48.110;11.522;2023-04-24T09:52:41;1.20;;;1.20;;
16520;SDS011;8373;48.110;11.522;2023-04-24T09:55:15;1.37;;;1.37;;
16520;SDS011;8373;48.110;11.522;2023-04-24T09:57:47;1.33;;;1.33;;
16520;SDS011;8373;48.110;11.522;2023-04-24T10:00:17;1.10;;;1.10;;
16520;SDS011;8373;48.110;11.522;2023-04-24T10:02:49;1.27;;;1.27;;
16520;SDS011;8373;48.110;11.522;2023-04-24T10:05:18;1.10;;;1.10;;
16520;SDS011;8373;48.110;11.522;2023-04-24T10:07:45;1.27;;;1.27;;
16520;SDS011;8373;48.110;11.522;2023-04-24T10:10:12;1.17;;;1.17;;
16520;SDS011;8373;48.110;11.522;2023-04-24T10:12:41;1.30;;;1.30;;
16520;SDS011;8373;48.110;11.522;2023-04-24T10:15:09;1.10;;;1.10;;
16520;SDS011;8373;48.110;11.522;2023-04-24T10:17:39;1.10;;;1.10;;
16520;SDS011;8373;48.110;11.522;2023-04-24T10:20:06;1.30;;;1.30;;
16520;SDS011;8373;48.110;11.522;2023-04-24T10:22:34;0.93;;;0.93;;
16520;SDS011;8373;48.110;11.522;2023-04-24T10:25:03;1.20;;;1.20;;
16520;SDS011;8373;48.110;11.522;2023-04-24T10:27:33;1.07;;;1.07;;
16520;SDS011;8373;48.110;11.522;2023-04-24T10:30:02;1.27;;;1.27;;
16520;SDS011;8373;48.110;11.522;2023-04-24T10:32:29;1.20;;;1.20;;
16520;SDS011;8373;48.110;11.522;2023-04-24T10:34:56;1.00;;;1.00;;
16520;SDS011;8373;48.110;11.522;2023-04-24T10:37:23;1.10;;;1.10;;
16520;SDS011;8373;48.110;11.522;2023-04-24T10:39:52;0.90;;;0.90;;
16520;SDS011;8373;48.110;11.522;2023-04-24T10:42:19;0.90;;;0.90;;
16520;SDS011;8373;48.110;11.522;2023-04-24T10:44:48;1.00;;;1.00;;
16520;SDS011;8373;48.110;11.522;2023-04-24T10:47:15;1.23;;;1.23;;
16520;SDS011;8373;48.110;11.522;2023-04-24T10:49:42;1.03;;;1.03;;
16520;SDS011;8373;48.110;11.522;2023-04-24T10:52:09;1.23;;;1.23;;
16520;SDS011;8373;48.110;11.522;2023-04-24T10:54:41;1.10;;;1.10;;
16520;SDS011;8373;48.110;11.522;2023-04-24T10:57:26;0.93;;;0.93;;
16520;SDS011;8373;48.110;11.522;2023-04-24T11:00:16;0.90;;;0.90;;
16520;SDS011;8373;48.110;11.522;2023-04-24T11:02:45;0.90;;;0.90;;
16520;SDS011;8373;48.110;11.522;2023-04-24T11:05:18;0.90;;;0.90;;
16520;SDS011;8373;48.110;11.522;2023-04-24T11:10:38;1.03;;;1.03;;
16520;SDS011;8373;48.110;11.522;2023-04-24T11:13:06;1.20;;;1.20;;
16520;SDS011;8373;48.110;11.522;2023-04-24T11:15:35;1.30;;;1.30;;
16520;SDS011;8373;48.110;11.522;2023-04-24T11:18:02;1.27;;;1.27;;
16520;SDS011;8373;48.110;11.522;2023-04-24T11:20:29;1.60;;;1.60;;
16520;SDS011;8373;48.110;11.522;2023-04-24T11:22:57;1.67;;;1.67;;
16520;SDS011;8373;48.110;11.522;2023-04-24T11:25:31;1.30;;;1.30;;
16520;SDS011;8373;48.110;11.522;2023-04-24T11:28:07;1.37;;;1.37;;
16520;SDS011;8373;48.110;11.522;2023-04-24T11:30:43;1.33;;;1.33;;
16520;SDS011;8373;48.110;11.522;2023-04-24T11:33:10;1.53;;;1.53;;
16520;SDS011;8373;48.110;11.522;2023-04-24T11:35:39;1.00;;;1.00;;
16520;SDS011;8373;48.110;11.522;2023-04-24T11:38:06;1.00;;;1.00;;
16520;SDS011;8373;48.110;11.522;2023-04-24T11:40:33;1.37;;;1.37;;
16520;SDS011;8373;48.110;11.522;2023-04-24T11:43:01;1.30;;;1.30;;
16520;SDS011;8373;48.110;11.522;2023-04-24T11:45:30;1.13;;;1.13;;
16520;SDS011;8373;48.110;11.522;2023-04-24T11:47:59;1.07;;;1.07;;
16520;SDS011;8373;48.110;11.522;2023-04-24T11:50:26;0.97;;;0.97;;
16520;SDS011;8373;48.110;11.522;2023-04-24T11:52:54;0.87;;;0.87;;
16520;SDS011;8373;48.110;11.522;2023-04-24T11:55:25;1.00;;;1.00;;
16520;SDS011;8373;48.110;11.522;2023-04-24T11:57:54;1.30;;;1.30;;
16520;SDS011;8373;48.110;11.522;2023-04-24T12:00:23;1.20;;;1.20;;
16520;SDS011;8373;48.110;11.522;2023-04-24T12:02:51;1.10;;;1.10;;
16520;SDS011;8373;48.110;11.522;2023-04-24T12:05:30;1.30;;;1.30;;
16520;SDS011;8373;48.110;11.522;2023-04-24T12:07:57;1.30;;;1.30;;
16520;SDS011;8373;48.110;11.522;2023-04-24T12:10:25;1.00;;;1.00;;
16520;SDS011;8373;48.110;11.522;2023-04-24T12:12:53;1.10;;;1.10;;
16520;SDS011;8373;48.110;11.522;2023-04-24T12:15:21;1.10;;;1.10;;
16520;SDS011;8373;48.110;11.522;2023-04-24T12:17:50;1.17;;;1.17;;
16520;SDS011;8373;48.110;11.522;2023-04-24T12:20:23;1.17;;;1.17;;
16520;SDS011;8373;48.110;11.522;2023-04-24T12:22:53;1.03;;;1.03;;
16520;SDS011;8373;48.110;11.522;2023-04-24T12:25:21;1.10;;;1.10;;
16520;SDS011;8373;48.110;11.522;2023-04-24T12:27:52;1.10;;;1.10;;
16520;SDS011;8373;48.110;11.522;2023-04-24T12:30:20;1.10;;;1.10;;
16520;SDS011;8373;48.110;11.522;2023-04-24T12:32:52;1.00;;;1.00;;
16520;SDS011;8373;48.110;11.522;2023-04-24T12:35:20;0.90;;;0.90;;
16520;SDS011;8373;48.110;11.522;2023-04-24T12:37:48;1.20;;;1.20;;
16520;SDS011;8373;48.110;11.522;2023-04-24T12:40:17;1.00;;;1.00;;
16520;SDS011;8373;48.110;11.522;2023-04-24T12:42:47;0.90;;;0.90;;
16520;SDS011;8373;48.110;11.522;2023-04-24T12:45:16;1.33;;;1.33;;
16520;SDS011;8373;48.110;11.522;2023-04-24T12:47:45;1.20;;;1.20;;
16520;SDS011;8373;48.110;11.522;2023-04-24T12:50:13;1.00;;;1.00;;
16520;SDS011;8373;48.110;11.522;2023-04-24T12:52:41;1.00;;;1.00;;
16520;SDS011;8373;48.110;11.522;2023-04-24T12:55:09;1.03;;;1.03;;
16520;SDS011;8373;48.110;11.522;2023-04-24T12:57:38;0.90;;;0.90;;
16520;SDS011;8373;48.110;11.522;2023-04-24T13:00:06;1.30;;;1.30;;
16520;SDS011;8373;48.110;11.522;2023-04-24T13:02:35;1.33;;;1.33;;
16520;SDS011;8373;48.110;11.522;2023-04-24T13:05:02;1.00;;;1.00;;
16520;SDS011;8373;48.110;11.522;2023-04-24T13:07:29;0.87;;;0.87;;
16520;SDS011;8373;48.110;11.522;2023-04-24T13:09:56;0.87;;;0.87;;
16520;SDS011;8373;48.110;11.522;2023-04-24T13:12:23;1.10;;;1.10;;
16520;SDS011;8373;48.110;11.522;2023-04-24T13:14:52;0.90;;;0.90;;
16520;SDS011;8373;48.110;11.522;2023-04-24T13:19:48;1.40;;;1.40;;
16520;SDS011;8373;48.110;11.522;2023-04-24T13:22:16;0.83;;;0.83;;
16520;SDS011;8373;48.110;11.522;2023-04-24T13:24:44;0.73;;;0.73;;
16520;SDS011;8373;48.110;11.522;2023-04-24T13:27:14;0.93;;;0.93;;
16520;SDS011;8373;48.110;11.522;2023-04-24T13:29:41;0.60;;;0.60;;
16520;SDS011;8373;48.110;11.522;2023-04-24T13:32:09;1.00;;;1.00;;
16520;SDS011;8373;48.110;11.522;2023-04-24T13:34:36;1.00;;;1.00;;
16520;SDS011;8373;48.110;11.522;2023-04-24T13:37:03;1.13;;;1.13;;
16520;SDS011;8373;48.110;11.522;2023-04-24T13:39:31;0.90;;;0.90;;
16520;SDS011;8373;48.110;11.522;2023-04-24T13:41:58;0.93;;;0.93;;
16520;SDS011;8373;48.110;11.522;2023-04-24T13:44:25;0.80;;;0.80;;
16520;SDS011;8373;48.110;11.522;2023-04-24T13:46:53;0.80;;;0.80;;
16520;SDS011;8373;48.110;11.522;2023-04-24T13:49:24;0.90;;;0.90;;
16520;SDS011;8373;48.110;11.522;2023-04-24T13:51:51;1.03;;;1.03;;
16520;SDS011;8373;48.110;11.522;2023-04-24T13:54:18;1.13;;;1.13;;
16520;SDS011;8373;48.110;11.522;2023-04-24T13:56:45;0.90;;;0.90;;
16520;SDS011;8373;48.110;11.522;2023-04-24T13:59:12;1.10;;;1.10;;
16520;SDS011;8373;48.110;11.522;2023-04-24T14:01:39;0.97;;;0.97;;
16520;SDS011;8373;48.110;11.522;2023-04-24T14:04:06;1.20;;;1.20;;
16520;SDS011;8373;48.110;11.522;2023-04-24T14:06:35;1.00;;;1.00;;
16520;SDS011;8373;48.110;11.522;2023-04-24T14:09:01;1.00;;;1.00;;
16520;SDS011;8373;48.110;11.522;2023-04-24T14:11:29;1.30;;;1.30;;
16520;SDS011;8373;48.110;11.522;2023-04-24T14:13:56;1.20;;;1.20;;
16520;SDS011;8373;48.110;11.522;2023-04-24T14:16:23;1.30;;;1.30;;
16520;SDS011;8373;48.110;11.522;2023-04-24T14:18:50;1.00;;;1.00;;
16520;SDS011;8373;48.110;11.522;2023-04-24T14:21:17;1.07;;;1.07;;
16520;SDS011;8373;48.110;11.522;2023-04-24T14:23:45;1.00;;;1.00;;
16520;SDS011;8373;48.110;11.522;2023-04-24T14:26:12;1.20;;;1.20;;
16520;SDS011;8373;48.110;11.522;2023-04-24T14:28:39;0.97;;;0.97;;
16520;SDS011;8373;48.110;11.522;2023-04-24T14:31:06;0.90;;;0.90;;
16520;SDS011;8373;48.110;11.522;2023-04-24T14:33:34;1.10;;;1.10;;
16520;SDS011;8373;48.110;11.522;2023-04-24T14:36:01;1.13;;;1.13;;
16520;SDS011;8373;48.110;11.522;2023-04-24T14:38:30;1.10;;;1.10;;
16520;SDS011;8373;48.110;11.522;2023-04-24T14:40:59;1.10;;;1.10;;
16520;SDS011;8373;48.110;11.522;2023-04-24T14:43:26;1.33;;;1.33;;
16520;SDS011;8373;48.110;11.522;2023-04-24T14:45:53;1.30;;;1.30;;
16520;SDS011;8373;48.110;11.522;2023-04-24T14:48:20;1.07;;;1.07;;
16520;SDS011;8373;48.110;11.522;2023-04-24T14:50:47;1.00;;;1.00;;
16520;SDS011;8373;48.110;11.522;2023-04-24T14:53:14;1.10;;;1.10;;
16520;SDS011;8373;48.110;11.522;2023-04-24T14:55:41;1.10;;;1.10;;
16520;SDS011;8373;48.110;11.522;2023-04-24T14:58:09;1.20;;;1.20;;